Leetonia, Minnesota
Current Conditions -  °F | °C
As of 12:53 PM on Tuesday 27 Jan 2015 (Local Time) from KHIB Reporting Station
Overcast Overcast  
Wind Chill: 23°   Ceiling: 1000
Heat Index: 29°   Visibility: 10mi
Dew Point: 22°   Wind: 6mph
Humidity: 75%   Direction: 190°S
Pressure: 30.11"   Gusts: NA
Location:  47.4158°N, 93.0053°W
Report Text: KHIB 271853Z AUTO 19005KT 10SM OVC010 M02/M06 A3011 RMK AO2 SLP219 T10171056
Loading
Personal Weather Stations






























Interactive Weather Map New forecast layout! Learn more

10-Day Weather Forecast

Advertisements
Track Severe Weather on mobile